Time,TemperatureF,DewpointF,PressureIn,WindDirection,WindDirectionDegrees,WindSpeedMPH,WindSpeedGustMPH,Humidity,HourlyPrecipIn,Conditions,Clouds,dailyrainin,SoftwareType,DateUTC
2012-11-14 00:00:00,31.4,23.4,30.33,NNE,22,1.0,5.0,72,0.00,,,-99.99,WeatherLink 5.6,2012-11-14 05:00:00,
2012-11-14 00:30:00,31.4,23.4,30.32,NE,45,0.0,3.0,72,0.00,,,-99.99,WeatherLink 5.6,2012-11-14 05:30:00,
2012-11-14 01:30:00,29.4,22.8,30.32,North,-999,0.0,0.0,76,0.00,,,-99.99,WeatherLink 5.6,2012-11-14 06:30:00,
2012-11-14 02:00:00,28.9,23.2,30.32,North,-999,0.0,0.0,79,0.00,,,-99.99,WeatherLink 5.6,2012-11-14 07:00:00,
2012-11-14 02:30:00,28.5,23.1,30.32,NNE,22,1.0,4.0,80,0.00,,,-99.99,WeatherLink 5.6,2012-11-14 07:30:00,
2012-11-14 03:00:00,28.4,23.0,30.32,NNE,22,1.0,3.0,80,0.00,,,-99.99,WeatherLink 5.6,2012-11-14 08:00:00,
2012-11-14 03:30:00,28.3,23.2,30.31,NNE,22,2.0,6.0,81,0.00,,,-99.99,WeatherLink 5.6,2012-11-14 08:30:00,
2012-11-14 04:00:00,28.2,23.1,30.30,North,0,3.0,9.0,81,0.00,,,-99.99,WeatherLink 5.6,2012-11-14 09:00:00,
2012-11-14 04:30:00,27.6,22.8,30.32,NNW,337,1.0,4.0,82,0.00,,,-99.99,WeatherLink 5.6,2012-11-14 09:30:00,
2012-11-14 05:00:00,28.4,23.0,30.31,NNE,22,3.0,8.0,80,0.00,,,-99.99,WeatherLink 5.6,2012-11-14 10:00:00,
2012-11-14 05:30:00,29.1,23.4,30.32,NNE,22,3.0,9.0,79,0.00,,,-99.99,WeatherLink 5.6,2012-11-14 10:30:00,
2012-11-14 06:00:00,29.4,23.1,30.32,NNE,22,2.0,6.0,77,0.00,,,-99.99,WeatherLink 5.6,2012-11-14 11:00:00,
2012-11-14 06:30:00,27.7,22.6,30.33,NW,315,1.0,4.0,81,0.00,,,-99.99,WeatherLink 5.6,2012-11-14 11:30:00,
2012-11-14 07:00:00,27.3,22.5,30.34,North,-999,0.0,0.0,82,0.00,,,-99.99,WeatherLink 5.6,2012-11-14 12:00:00,
2012-11-14 07:30:00,27.8,23.0,30.34,North,-999,0.0,0.0,82,0.00,,,-99.99,WeatherLink 5.6,2012-11-14 12:30:00,
2012-11-14 08:00:00,28.2,23.1,30.34,North,-999,0.0,0.0,81,0.00,,,-99.99,WeatherLink 5.6,2012-11-14 13:00:00,
2012-11-14 08:30:00,28.0,23.5,30.35,North,-999,0.0,0.0,83,0.00,,,-99.99,WeatherLink 5.6,2012-11-14 13:30:00,
2012-11-14 09:00:00,28.7,24.2,30.34,North,-999,0.0,0.0,83,0.00,,,-99.99,WeatherLink 5.6,2012-11-14 14:00:00,
2012-11-14 09:30:00,29.0,24.2,30.34,North,-999,0.0,0.0,82,0.00,,,-99.99,WeatherLink 5.6,2012-11-14 14:30:00,
2012-11-14 10:00:00,30.3,25.2,30.33,North,-999,0.0,0.0,81,0.00,,,-99.99,WeatherLink 5.6,2012-11-14 15:00:00,
2012-11-14 10:30:00,31.5,26.3,30.33,North,-999,0.0,0.0,81,0.00,,,-99.99,WeatherLink 5.6,2012-11-14 15:30:00,
2012-11-14 11:00:00,35.4,29.5,30.32,North,-999,0.0,0.0,79,0.00,,,-99.99,WeatherLink 5.6,2012-11-14 16:00:00,
2012-11-14 11:30:00,37.5,30.3,30.30,North,-999,0.0,0.0,75,0.00,,,-99.99,WeatherLink 5.6,2012-11-14 16:30:00,
2012-11-14 12:00:00,39.6,31.7,30.29,North,-999,0.0,0.0,73,0.00,,,-99.99,WeatherLink 5.6,2012-11-14 17:00:00,
2012-11-14 12:30:00,41.5,32.4,30.27,North,-999,0.0,0.0,70,0.00,,,-99.99,WeatherLink 5.6,2012-11-14 17:30:00,
2012-11-14 13:00:00,43.8,30.8,30.24,North,0,0.0,2.0,60,0.00,,,-99.99,WeatherLink 5.6,2012-11-14 18:00:00,
2012-11-14 13:30:00,43.6,30.6,30.24,North,-999,0.0,0.0,60,0.00,,,-99.99,WeatherLink 5.6,2012-11-14 18:30:00,
2012-11-14 14:00:00,44.3,31.7,30.23,NNW,337,0.0,2.0,61,0.00,,,-99.99,WeatherLink 5.6,2012-11-14 19:00:00,
2012-11-14 14:30:00,44.9,31.8,30.22,NW,315,0.0,2.0,60,0.00,,,-99.99,WeatherLink 5.6,2012-11-14 19:30:00,
2012-11-14 15:00:00,44.6,30.7,30.22,NW,315,0.0,3.0,58,0.00,,,-99.99,WeatherLink 5.6,2012-11-14 20:00:00,
2012-11-14 15:30:00,43.9,32.5,30.22,NW,315,0.0,3.0,64,0.00,,,-99.99,WeatherLink 5.6,2012-11-14 20:30:00,
2012-11-14 16:00:00,43.8,31.6,30.22,North,-999,0.0,0.0,62,0.00,,,-99.99,WeatherLink 5.6,2012-11-14 21:00:00,
2012-11-14 16:30:00,42.5,31.6,30.23,NNE,22,0.0,5.0,65,0.00,,,-99.99,WeatherLink 5.6,2012-11-14 21:30:00,
2012-11-14 17:00:00,40.9,30.8,30.23,NNE,22,0.0,1.0,67,0.00,,,-99.99,WeatherLink 5.6,2012-11-14 22:00:00,
2012-11-14 17:30:00,39.2,29.9,30.23,North,-999,0.0,0.0,69,0.00,,,-99.99,WeatherLink 5.6,2012-11-14 22:30:00,
2012-11-14 18:00:00,37.9,29.7,30.24,NNE,22,0.0,3.0,72,0.00,,,-99.99,WeatherLink 5.6,2012-11-14 23:00:00,
2012-11-14 18:30:00,37.6,29.4,30.26,North,0,0.0,2.0,72,0.00,,,-99.99,WeatherLink 5.6,2012-11-14 23:30:00,
2012-11-14 19:00:00,37.5,28.9,30.26,North,0,0.0,2.0,71,0.00,,,-99.99,WeatherLink 5.6,2012-11-15 00:00:00,
2012-11-14 19:30:00,36.8,29.0,30.26,North,-999,0.0,0.0,73,0.00,,,-99.99,WeatherLink 5.6,2012-11-15 00:30:00,
2012-11-14 20:00:00,36.9,28.7,30.26,North,-999,0.0,0.0,72,0.00,,,-99.99,WeatherLink 5.6,2012-11-15 01:00:00,
2012-11-14 20:30:00,36.9,28.7,30.25,North,0,0.0,1.0,72,0.00,,,-99.99,WeatherLink 5.6,2012-11-15 01:30:00,
2012-11-14 21:00:00,36.9,28.7,30.25,NNE,22,0.0,4.0,72,0.00,,,-99.99,WeatherLink 5.6,2012-11-15 02:00:00,
2012-11-14 21:30:00,36.5,28.7,30.25,NNE,22,0.0,2.0,73,0.00,,,-99.99,WeatherLink 5.6,2012-11-15 02:30:00,
2012-11-14 22:00:00,36.4,28.6,30.24,North,-999,0.0,0.0,73,0.00,,,-99.99,WeatherLink 5.6,2012-11-15 03:00:00,
2012-11-14 22:30:00,36.4,28.6,30.21,North,-999,0.0,0.0,73,0.00,,,-99.99,WeatherLink 5.6,2012-11-15 03:30:00,
2012-11-14 23:00:00,36.5,28.7,30.20,North,-999,0.0,0.0,73,0.00,,,-99.99,WeatherLink 5.6,2012-11-15 04:00:00,
2012-11-14 23:30:00,37.3,28.8,30.17,SSE,157,1.0,5.0,71,0.00,,,-99.99,WeatherLink 5.6,2012-11-15 04:30:00,